To NAV CANADA Home Page Login to a new session Search on AWWS site Feedback and Comments Disclaimer Vers la page française équivalente Tips FAQ What's new on the site To the Forecasts and Observations / NOTAM section To "File a Flight Plan" website Publications and other links Update of the User's profile FIC Telephone Numbers My Weather Data Folder Route Weather Data Regional Weather Data Local Weather Data To the Forecasts and Observations / NOTAM section
Request Generated 03/28/2017 at 02:18:01 UTC . Weather information available at that time is displayed.

METAR/TAF

STEPHENVILLE/NL    

METAR CYJT 280200Z 33002KT 15SM FEW020 SCT200 M07/M09 A3031 RMK
SC2CI1 SLP267=
METAR CYJT 280100Z 00000KT 15SM FEW020 FEW200 M05/M08 A3032 RMK
SC1CI1 SLP272=
METAR CYJT 280000Z 26008KT 230V300 15SM FEW020 SCT200 M05/M08 A3033
RMK SC2CI1 SLP272=

TAF CYJT 272338Z 2800/2824 VRB03KT P6SM FEW020
FM280600 VRB03KT P6SM SKC
FM281600 VRB03KT P6SM BKN120
RMK NXT FCST BY 280600Z=
Your time UTC time
Weather data provided by Environment Canada and NAV CANADA